createdAt,value
2018-12-04T00:11:14.984Z,55.30
2018-12-04T00:16:12.904Z,55.30
2018-12-04T00:18:39.131Z,55.40
2018-12-04T00:23:38.140Z,55.10
2018-12-04T00:38:44.648Z,54.70
2018-12-04T00:48:45.675Z,54.30
2018-12-04T00:53:44.280Z,54.20
2018-12-04T01:01:13.620Z,54.00
2018-12-04T01:08:43.564Z,53.70
2018-12-04T01:13:41.277Z,53.80
2018-12-04T01:16:07.576Z,53.70
2018-12-04T01:21:09.057Z,53.60
2018-12-04T01:26:07.653Z,53.30
2018-12-04T01:31:06.041Z,53.20
2018-12-04T01:43:40.120Z,53.20
2018-12-04T01:58:45.130Z,52.90
2018-12-04T02:16:21.092Z,52.50
2018-12-04T02:18:47.263Z,52.70
2018-12-04T02:21:13.548Z,52.50
2018-12-04T02:33:47.209Z,52.50
2018-12-04T02:38:45.081Z,52.30
2018-12-04T02:43:43.794Z,52.00
2018-12-04T02:53:46.936Z,52.30
2018-12-04T02:58:45.168Z,52.10
2018-12-04T03:08:45.814Z,52.10
2018-12-04T03:11:14.103Z,51.90
2018-12-04T03:13:41.148Z,51.90
2018-12-04T03:16:07.328Z,51.90
2018-12-04T03:18:34.415Z,51.80
2018-12-04T03:21:00.652Z,51.80
2018-12-04T03:23:26.875Z,51.70
2018-12-04T03:25:53.097Z,51.60
2018-12-04T03:28:19.324Z,51.80
2018-12-04T03:30:45.565Z,51.70
2018-12-04T03:33:11.789Z,51.40
2018-12-04T03:35:39.243Z,51.50
2018-12-04T03:38:05.479Z,51.70
2018-12-04T03:40:31.705Z,51.50
2018-12-04T03:45:30.300Z,51.30
2018-12-04T03:47:56.528Z,51.20
2018-12-04T03:50:22.755Z,51.30
2018-12-04T03:52:48.977Z,51.50
2018-12-04T03:55:15.212Z,51.30
2018-12-04T03:57:45.332Z,51.20
2018-12-04T04:00:11.574Z,51.20
2018-12-04T04:02:39.219Z,51.40
2018-12-04T04:05:05.455Z,51.30
2018-12-04T04:07:31.683Z,51.20
2018-12-04T04:09:57.911Z,51.20
2018-12-04T04:12:24.143Z,51.20
2018-12-04T04:14:50.565Z,51.10
2018-12-04T04:17:16.797Z,50.80
2018-12-04T04:19:43.033Z,50.90
2018-12-04T04:22:15.202Z,50.80
2018-12-04T04:24:45.322Z,50.80
2018-12-04T04:27:11.541Z,50.80
2018-12-04T04:29:37.760Z,50.90
2018-12-04T04:32:04.004Z,50.90
2018-12-04T04:34:30.225Z,50.70
2018-12-04T04:36:56.456Z,50.80
2018-12-04T04:39:22.686Z,50.70
2018-12-04T04:41:48.913Z,50.60
2018-12-04T04:44:15.145Z,50.60
2018-12-04T04:46:41.368Z,50.80
2018-12-04T04:49:07.602Z,50.90
2018-12-04T04:54:06.185Z,50.50
2018-12-04T04:56:32.428Z,50.50
2018-12-04T04:58:58.655Z,50.40
2018-12-04T05:01:24.887Z,50.60
2018-12-04T05:03:51.121Z,50.60
2018-12-04T05:06:17.336Z,50.40
2018-12-04T05:08:43.567Z,50.40
2018-12-04T05:11:15.176Z,50.50
2018-12-04T05:16:13.925Z,50.20
2018-12-04T05:18:40.100Z,50.50
2018-12-04T05:21:07.192Z,50.10
2018-12-04T05:23:33.443Z,50.10
2018-12-04T05:25:59.657Z,50.20
2018-12-04T05:28:27.317Z,50.00
2018-12-04T05:30:53.537Z,50.10
2018-12-04T05:33:19.783Z,50.00
2018-12-04T05:35:46.015Z,50.20
2018-12-04T05:38:12.241Z,50.10
2018-12-04T05:40:38.432Z,50.10
2018-12-04T05:43:04.691Z,50.10
2018-12-04T05:45:30.922Z,50.20
2018-12-04T05:47:57.145Z,49.90
2018-12-04T05:50:27.265Z,49.70
2018-12-04T05:52:53.494Z,49.60
2018-12-04T05:55:19.722Z,49.60
2018-12-04T05:57:45.916Z,49.70
2018-12-04T06:00:15.248Z,49.70
2018-12-04T06:02:41.449Z,49.80
2018-12-04T06:05:07.632Z,50.00
2018-12-04T06:07:33.923Z,50.40
2018-12-04T06:12:31.912Z,49.70
2018-12-04T06:14:58.085Z,49.90
2018-12-04T06:17:24.376Z,49.90
2018-12-04T06:19:50.549Z,49.70
2018-12-04T06:22:16.824Z,49.70
2018-12-04T06:24:43.061Z,49.60
2018-12-04T06:27:09.289Z,49.90
2018-12-04T06:29:35.538Z,49.60
2018-12-04T06:32:01.745Z,49.70
2018-12-04T06:34:27.983Z,49.50
2018-12-04T06:36:57.273Z,49.30
2018-12-04T06:39:27.393Z,49.40
2018-12-04T06:41:53.613Z,49.40
2018-12-04T06:44:19.840Z,49.40
2018-12-04T06:46:46.079Z,49.30
2018-12-04T06:49:12.270Z,49.30
2018-12-04T06:51:39.356Z,49.30
2018-12-04T06:54:09.273Z,49.30
2018-12-04T06:56:39.389Z,49.30
2018-12-04T06:59:05.821Z,49.30
2018-12-04T07:01:32.048Z,49.30
2018-12-04T07:03:58.277Z,49.40
2018-12-04T07:06:24.497Z,49.30
2018-12-04T07:08:50.733Z,49.30
2018-12-04T07:11:16.964Z,49.30
2018-12-04T07:16:14.954Z,49.00
2018-12-04T07:18:41.143Z,49.00
2018-12-04T07:21:07.403Z,49.00
2018-12-04T07:23:33.624Z,49.00
2018-12-04T07:26:03.345Z,48.90
2018-12-04T07:28:29.568Z,48.90
2018-12-04T07:30:55.748Z,48.90
2018-12-04T07:33:22.845Z,48.80
2018-12-04T07:35:49.022Z,48.80
2018-12-04T07:38:16.124Z,48.80
2018-12-04T07:40:43.502Z,48.80
2018-12-04T07:43:09.510Z,48.70
2018-12-04T07:45:39.312Z,49.20
2018-12-04T07:48:05.541Z,48.90
2018-12-04T07:50:31.769Z,48.60
2018-12-04T07:52:57.950Z,48.70
2018-12-04T07:55:25.046Z,48.80
2018-12-04T07:57:51.283Z,48.70
2018-12-04T08:00:17.502Z,48.70
2018-12-04T08:02:43.728Z,48.70
2018-12-04T08:05:09.966Z,48.70
2018-12-04T08:07:36.185Z,48.60
2018-12-04T08:10:02.416Z,48.50
2018-12-04T08:12:28.641Z,48.40
2018-12-04T08:14:54.871Z,48.40
2018-12-04T08:17:21.102Z,48.40
2018-12-04T08:19:47.330Z,48.40
2018-12-04T08:24:51.450Z,48.60
2018-12-04T08:27:21.379Z,48.50
2018-12-04T08:29:47.600Z,48.40
2018-12-04T08:32:15.465Z,48.40
2018-12-04T08:34:41.692Z,48.30
2018-12-04T08:37:09.367Z,48.40
2018-12-04T08:39:35.585Z,48.40
2018-12-04T08:42:01.847Z,48.30
2018-12-04T08:44:28.035Z,48.30
2018-12-04T08:46:54.218Z,48.30
2018-12-04T08:49:21.321Z,48.20
2018-12-04T08:51:47.525Z,48.10
2018-12-04T08:54:13.715Z,48.20
2018-12-04T08:56:40.004Z,48.10
2018-12-04T08:59:09.508Z,48.20
2018-12-04T09:01:35.696Z,48.40
2018-12-04T09:04:02.792Z,48.20
2018-12-04T09:06:28.985Z,48.20
2018-12-04T09:08:57.490Z,48.10
2018-12-04T09:11:23.676Z,48.10
2018-12-04T09:13:50.769Z,48.20
2018-12-04T09:16:23.526Z,48.10
2018-12-04T09:18:47.983Z,48.00
2018-12-04T09:21:14.366Z,48.10
2018-12-04T09:26:12.772Z,48.00
2018-12-04T09:28:39.430Z,48.10
2018-12-04T09:31:05.833Z,47.90
2018-12-04T09:33:32.071Z,47.80
2018-12-04T09:38:30.464Z,47.90
2018-12-04T09:40:57.505Z,47.90
2018-12-04T09:43:23.732Z,47.80
2018-12-04T09:45:49.973Z,47.80
2018-12-04T09:48:16.213Z,48.40
2018-12-04T09:50:45.487Z,47.80
2018-12-04T09:53:15.410Z,47.80
2018-12-04T09:55:41.638Z,47.70
2018-12-04T09:58:07.820Z,47.70
2018-12-04T10:00:34.901Z,47.60
2018-12-04T10:03:01.128Z,47.60
2018-12-04T10:05:27.378Z,47.60
2018-12-04T10:07:53.591Z,47.60
2018-12-04T10:10:19.821Z,47.40
2018-12-04T10:12:46.065Z,47.70
2018-12-04T10:15:12.485Z,47.70
2018-12-04T10:17:39.538Z,47.50
2018-12-04T10:20:05.752Z,47.50
2018-12-04T10:22:31.976Z,47.50
2018-12-04T10:25:03.546Z,47.40
2018-12-04T10:27:29.772Z,47.60
2018-12-04T10:32:27.953Z,47.30
2018-12-04T10:34:54.176Z,47.40
2018-12-04T10:37:20.411Z,47.40
2018-12-04T10:39:46.590Z,47.40
2018-12-04T10:42:13.694Z,47.40
2018-12-04T10:44:39.877Z,47.40
2018-12-04T10:47:06.962Z,47.30
2018-12-04T10:49:33.136Z,47.30
2018-12-04T10:51:59.424Z,47.30
2018-12-04T10:54:25.640Z,47.30
2018-12-04T10:56:57.408Z,47.40
2018-12-04T10:59:23.646Z,47.20
2018-12-04T11:01:49.868Z,47.30
2018-12-04T11:04:16.091Z,47.30
2018-12-04T11:09:14.693Z,47.20
2018-12-04T11:11:40.893Z,47.20
2018-12-04T11:14:07.085Z,47.30
2018-12-04T11:16:33.376Z,47.30
2018-12-04T11:18:59.604Z,47.50
2018-12-04T11:21:27.476Z,47.70
2018-12-04T11:23:53.702Z,47.20
2018-12-04T11:26:19.919Z,47.30
2018-12-04T11:28:46.166Z,47.20
2018-12-04T11:31:15.456Z,47.10
2018-12-04T11:33:41.689Z,47.20
2018-12-04T11:36:07.907Z,47.20
2018-12-04T11:38:34.134Z,47.10
2018-12-04T11:41:00.369Z,47.20
2018-12-04T11:43:26.600Z,47.10
2018-12-04T11:45:52.834Z,47.20
2018-12-04T11:48:19.060Z,47.10
2018-12-04T11:50:45.281Z,47.10
2018-12-04T11:53:11.513Z,47.10
2018-12-04T11:55:37.728Z,47.10
2018-12-04T11:58:03.961Z,46.90
2018-12-04T12:00:30.142Z,47.10
2018-12-04T12:02:57.244Z,47.00
2018-12-04T12:05:23.415Z,47.00
2018-12-04T12:07:49.698Z,47.10
2018-12-04T12:10:15.920Z,47.00
2018-12-04T12:12:42.097Z,47.10
2018-12-04T12:15:08.397Z,47.70
2018-12-04T12:17:34.624Z,46.60
2018-12-04T12:20:00.844Z,47.00
2018-12-04T12:22:27.013Z,47.10
2018-12-04T12:24:53.288Z,47.00
2018-12-04T12:27:19.525Z,47.00
2018-12-04T12:29:51.487Z,46.90
2018-12-04T12:32:17.717Z,46.80
2018-12-04T12:37:15.495Z,47.10
2018-12-04T12:39:41.721Z,46.90
2018-12-04T12:42:07.963Z,47.10
2018-12-04T12:44:34.177Z,46.70
2018-12-04T12:54:35.887Z,47.10
2018-12-04T12:57:02.071Z,46.80
2018-12-04T12:59:29.167Z,47.30
2018-12-04T13:12:02.220Z,47.40
2018-12-04T13:14:28.451Z,47.40
2018-12-04T13:21:57.586Z,47.50
2018-12-04T13:24:23.819Z,47.10
2018-12-04T13:29:27.532Z,47.30
2018-12-04T13:31:53.760Z,47.20
2018-12-04T13:36:51.536Z,47.20
2018-12-04T14:19:42.465Z,47.20
2018-12-04T15:22:50.088Z,46.90
2018-12-04T15:27:47.908Z,46.90
2018-12-04T15:30:14.258Z,46.20
2018-12-04T15:37:45.719Z,47.10
2018-12-04T15:45:15.851Z,47.00
2018-12-04T15:47:42.348Z,47.10
2018-12-04T15:50:08.702Z,47.10
2018-12-04T15:57:38.970Z,47.00
2018-12-04T16:00:05.260Z,47.10
2018-12-04T16:07:34.814Z,47.10
2018-12-04T16:12:33.201Z,46.90
2018-12-04T16:15:03.782Z,46.90
2018-12-04T16:17:30.184Z,47.10
2018-12-04T16:22:28.305Z,46.90
2018-12-04T16:27:26.582Z,47.10
2018-12-04T16:29:57.708Z,47.10
2018-12-04T16:32:27.825Z,47.10
2018-12-04T16:34:57.694Z,46.90
2018-12-04T16:39:55.513Z,46.90
2018-12-04T16:44:53.489Z,46.90
2018-12-04T16:52:23.634Z,46.90
2018-12-04T16:57:21.821Z,46.80
2018-12-04T16:59:51.663Z,46.80
2018-12-04T17:02:17.972Z,46.90
2018-12-04T17:04:44.247Z,46.80
2018-12-04T17:09:45.904Z,46.60
2018-12-04T17:14:44.462Z,47.50
2018-12-04T17:17:15.825Z,47.20
2018-12-04T17:19:45.686Z,46.70
2018-12-04T17:22:11.963Z,46.40
2018-12-04T17:27:10.383Z,46.60
2018-12-04T19:00:05.926Z,46.40
2018-12-04T19:02:32.312Z,50.30
2018-12-04T19:05:03.857Z,50.20
2018-12-04T19:07:33.755Z,49.20
2018-12-04T19:10:00.213Z,48.40
2018-12-04T19:14:58.411Z,47.50
2018-12-04T19:17:27.910Z,47.00
2018-12-04T19:22:25.676Z,46.60
2018-12-04T19:42:35.096Z,45.80
2018-12-04T19:45:01.504Z,45.70
2018-12-04T19:47:27.895Z,45.70
2018-12-04T19:52:26.022Z,45.50
2018-12-04T19:54:52.328Z,45.40
2018-12-04T19:59:50.094Z,45.40
2018-12-04T20:04:51.834Z,45.30
2018-12-04T20:07:18.208Z,45.30
2018-12-04T20:17:20.545Z,45.40
2018-12-04T20:27:22.462Z,45.00
2018-12-04T20:32:20.220Z,45.00
2018-12-04T20:39:49.404Z,45.10
2018-12-04T20:42:23.066Z,44.90
2018-12-04T20:44:42.360Z,44.90
2018-12-04T20:47:08.904Z,44.90
2018-12-04T20:49:35.388Z,44.90
2018-12-04T20:52:01.726Z,44.80
2018-12-04T20:57:02.157Z,44.80
2018-12-04T20:59:27.903Z,44.90
2018-12-04T21:14:33.202Z,44.50
2018-12-04T21:17:03.981Z,44.50
2018-12-04T21:22:01.663Z,44.40
2018-12-04T21:32:04.057Z,44.30
2018-12-04T21:44:37.709Z,44.20
2018-12-04T21:52:09.928Z,44.30
2018-12-04T21:57:07.940Z,44.20
2018-12-04T21:59:34.344Z,44.10
2018-12-04T22:07:04.715Z,44.00
2018-12-04T22:19:39.612Z,44.00
2018-12-04T22:27:10.756Z,43.90
2018-12-04T22:34:41.694Z,43.80
2018-12-04T22:39:39.954Z,43.80
2018-12-04T22:49:41.695Z,43.80
2018-12-04T22:52:08.073Z,43.70
2018-12-04T22:57:06.060Z,43.70
2018-12-04T23:04:36.259Z,43.50
2018-12-04T23:12:06.761Z,43.60
2018-12-04T23:19:36.333Z,43.50
2018-12-04T23:27:07.097Z,43.50
2018-12-04T23:32:04.973Z,43.40
2018-12-04T23:34:32.133Z,43.60
2018-12-04T23:47:10.124Z,43.40
2018-12-04T23:49:36.538Z,43.40
2018-12-04T23:52:03.911Z,43.20
2018-12-04T23:54:30.153Z,43.20
2018-12-04T23:56:56.377Z,43.10
2018-12-04T23:59:22.696Z,43.20
